sensor_id;sensor_type;location;lat;lon;timestamp;P1;durP1;ratioP1;P2;durP2;ratioP2
19030;SDS011;9648;51.130;13.978;2023-10-08T00:00:40;5.45;;;2.60;;
19030;SDS011;9648;51.130;13.978;2023-10-08T00:03:46;7.30;;;2.60;;
19030;SDS011;9648;51.130;13.978;2023-10-08T00:06:50;5.28;;;2.58;;
19030;SDS011;9648;51.130;13.978;2023-10-08T00:09:52;8.32;;;3.60;;
19030;SDS011;9648;51.130;13.978;2023-10-08T00:12:59;7.28;;;3.33;;
19030;SDS011;9648;51.130;13.978;2023-10-08T00:16:03;6.15;;;3.15;;
19030;SDS011;9648;51.130;13.978;2023-10-08T00:19:09;8.13;;;3.70;;
19030;SDS011;9648;51.130;13.978;2023-10-08T00:22:15;8.55;;;3.63;;
19030;SDS011;9648;51.130;13.978;2023-10-08T00:25:18;7.35;;;3.95;;
19030;SDS011;9648;51.130;13.978;2023-10-08T00:28:21;8.20;;;3.80;;
19030;SDS011;9648;51.130;13.978;2023-10-08T00:31:26;10.40;;;4.47;;
19030;SDS011;9648;51.130;13.978;2023-10-08T00:34:34;7.80;;;3.95;;
19030;SDS011;9648;51.130;13.978;2023-10-08T00:37:41;7.25;;;3.80;;
19030;SDS011;9648;51.130;13.978;2023-10-08T00:40:43;8.15;;;4.35;;
19030;SDS011;9648;51.130;13.978;2023-10-08T00:43:47;8.52;;;4.60;;
19030;SDS011;9648;51.130;13.978;2023-10-08T00:46:52;11.15;;;5.10;;
19030;SDS011;9648;51.130;13.978;2023-10-08T00:49:56;6.88;;;4.10;;
19030;SDS011;9648;51.130;13.978;2023-10-08T00:53:08;7.10;;;4.25;;
19030;SDS011;9648;51.130;13.978;2023-10-08T00:56:17;10.10;;;5.38;;
19030;SDS011;9648;51.130;13.978;2023-10-08T00:59:24;6.40;;;4.50;;
19030;SDS011;9648;51.130;13.978;2023-10-08T01:02:26;8.77;;;5.10;;
19030;SDS011;9648;51.130;13.978;2023-10-08T01:05:36;9.57;;;5.50;;
19030;SDS011;9648;51.130;13.978;2023-10-08T01:08:46;6.38;;;4.28;;
19030;SDS011;9648;51.130;13.978;2023-10-08T01:12:06;7.70;;;4.95;;
19030;SDS011;9648;51.130;13.978;2023-10-08T01:15:10;8.85;;;5.25;;
19030;SDS011;9648;51.130;13.978;2023-10-08T01:18:17;7.80;;;5.13;;
19030;SDS011;9648;51.130;13.978;2023-10-08T01:21:29;10.98;;;7.63;;
19030;SDS011;9648;51.130;13.978;2023-10-08T01:24:35;7.80;;;5.80;;
19030;SDS011;9648;51.130;13.978;2023-10-08T01:27:37;5.60;;;2.88;;
19030;SDS011;9648;51.130;13.978;2023-10-08T01:30:39;2.00;;;0.80;;
19030;SDS011;9648;51.130;13.978;2023-10-08T01:33:41;0.30;;;0.30;;
19030;SDS011;9648;51.130;13.978;2023-10-08T01:36:50;0.30;;;0.30;;
19030;SDS011;9648;51.130;13.978;2023-10-08T01:39:53;0.30;;;0.30;;
19030;SDS011;9648;51.130;13.978;2023-10-08T01:42:54;2.30;;;0.30;;
19030;SDS011;9648;51.130;13.978;2023-10-08T01:46:02;0.20;;;0.20;;
19030;SDS011;9648;51.130;13.978;2023-10-08T01:49:04;0.20;;;0.20;;
19030;SDS011;9648;51.130;13.978;2023-10-08T01:52:13;0.20;;;0.20;;
19030;SDS011;9648;51.130;13.978;2023-10-08T01:55:20;0.98;;;0.20;;
19030;SDS011;9648;51.130;13.978;2023-10-08T01:58:22;0.22;;;0.22;;
19030;SDS011;9648;51.130;13.978;2023-10-08T02:01:24;0.20;;;0.20;;
19030;SDS011;9648;51.130;13.978;2023-10-08T02:04:28;0.30;;;0.30;;
19030;SDS011;9648;51.130;13.978;2023-10-08T02:07:30;0.20;;;0.20;;
19030;SDS011;9648;51.130;13.978;2023-10-08T02:10:37;0.43;;;0.33;;
19030;SDS011;9648;51.130;13.978;2023-10-08T02:13:40;0.40;;;0.30;;
19030;SDS011;9648;51.130;13.978;2023-10-08T02:16:42;0.20;;;0.20;;
19030;SDS011;9648;51.130;13.978;2023-10-08T02:19:44;0.20;;;0.20;;
19030;SDS011;9648;51.130;13.978;2023-10-08T02:22:45;0.57;;;0.30;;
19030;SDS011;9648;51.130;13.978;2023-10-08T02:25:48;0.37;;;0.30;;
19030;SDS011;9648;51.130;13.978;2023-10-08T02:28:50;0.37;;;0.37;;
19030;SDS011;9648;51.130;13.978;2023-10-08T02:31:55;1.40;;;0.67;;
19030;SDS011;9648;51.130;13.978;2023-10-08T02:34:57;2.07;;;0.90;;
19030;SDS011;9648;51.130;13.978;2023-10-08T02:37:59;2.03;;;0.80;;
19030;SDS011;9648;51.130;13.978;2023-10-08T02:41:02;1.90;;;0.70;;
19030;SDS011;9648;51.130;13.978;2023-10-08T02:44:06;2.07;;;0.77;;
19030;SDS011;9648;51.130;13.978;2023-10-08T02:47:12;2.13;;;1.00;;
19030;SDS011;9648;51.130;13.978;2023-10-08T02:50:16;1.43;;;0.60;;
19030;SDS011;9648;51.130;13.978;2023-10-08T02:53:18;0.40;;;0.40;;
19030;SDS011;9648;51.130;13.978;2023-10-08T02:56:22;0.93;;;0.40;;
19030;SDS011;9648;51.130;13.978;2023-10-08T02:59:28;0.40;;;0.33;;
19030;SDS011;9648;51.130;13.978;2023-10-08T03:02:38;0.30;;;0.30;;
19030;SDS011;9648;51.130;13.978;2023-10-08T03:05:40;0.30;;;0.30;;
19030;SDS011;9648;51.130;13.978;2023-10-08T03:08:44;0.70;;;0.30;;
19030;SDS011;9648;51.130;13.978;2023-10-08T03:11:49;0.20;;;0.20;;
19030;SDS011;9648;51.130;13.978;2023-10-08T03:14:51;1.80;;;0.60;;
19030;SDS011;9648;51.130;13.978;2023-10-08T03:18:12;2.33;;;0.80;;
19030;SDS011;9648;51.130;13.978;2023-10-08T03:21:15;1.00;;;0.70;;
19030;SDS011;9648;51.130;13.978;2023-10-08T03:24:21;2.27;;;1.00;;
19030;SDS011;9648;51.130;13.978;2023-10-08T03:27:39;5.23;;;1.27;;
19030;SDS011;9648;51.130;13.978;2023-10-08T03:30:42;4.30;;;1.00;;
19030;SDS011;9648;51.130;13.978;2023-10-08T03:33:50;1.93;;;0.70;;
19030;SDS011;9648;51.130;13.978;2023-10-08T03:36:55;2.00;;;0.77;;
19030;SDS011;9648;51.130;13.978;2023-10-08T03:40:06;2.23;;;0.80;;
19030;SDS011;9648;51.130;13.978;2023-10-08T03:43:25;2.13;;;0.70;;
19030;SDS011;9648;51.130;13.978;2023-10-08T03:46:37;2.13;;;0.80;;
19030;SDS011;9648;51.130;13.978;2023-10-08T03:49:42;1.53;;;0.60;;
19030;SDS011;9648;51.130;13.978;2023-10-08T03:52:46;1.30;;;0.70;;
19030;SDS011;9648;51.130;13.978;2023-10-08T03:55:49;3.93;;;1.23;;
19030;SDS011;9648;51.130;13.978;2023-10-08T03:58:53;1.63;;;0.80;;
19030;SDS011;9648;51.130;13.978;2023-10-08T04:01:55;1.03;;;0.77;;
19030;SDS011;9648;51.130;13.978;2023-10-08T04:05:02;2.17;;;0.90;;
19030;SDS011;9648;51.130;13.978;2023-10-08T04:08:18;1.47;;;0.80;;
19030;SDS011;9648;51.130;13.978;2023-10-08T04:11:24;2.57;;;0.80;;
19030;SDS011;9648;51.130;13.978;2023-10-08T04:14:33;0.70;;;0.60;;
19030;SDS011;9648;51.130;13.978;2023-10-08T04:17:35;3.67;;;0.70;;
19030;SDS011;9648;51.130;13.978;2023-10-08T04:20:43;2.93;;;0.60;;
19030;SDS011;9648;51.130;13.978;2023-10-08T04:24:00;2.60;;;0.63;;
19030;SDS011;9648;51.130;13.978;2023-10-08T04:27:11;1.73;;;0.70;;
19030;SDS011;9648;51.130;13.978;2023-10-08T04:30:16;1.40;;;0.57;;
19030;SDS011;9648;51.130;13.978;2023-10-08T04:33:18;2.53;;;0.80;;
19030;SDS011;9648;51.130;13.978;2023-10-08T04:36:22;2.03;;;0.60;;
19030;SDS011;9648;51.130;13.978;2023-10-08T04:39:27;2.33;;;0.80;;
19030;SDS011;9648;51.130;13.978;2023-10-08T04:42:33;1.63;;;0.60;;
19030;SDS011;9648;51.130;13.978;2023-10-08T04:45:38;1.50;;;0.80;;
19030;SDS011;9648;51.130;13.978;2023-10-08T04:48:41;2.47;;;1.00;;
19030;SDS011;9648;51.130;13.978;2023-10-08T04:51:43;1.70;;;1.10;;
19030;SDS011;9648;51.130;13.978;2023-10-08T04:54:46;2.13;;;1.40;;
19030;SDS011;9648;51.130;13.978;2023-10-08T04:57:51;2.00;;;0.87;;
19030;SDS011;9648;51.130;13.978;2023-10-08T05:00:54;1.53;;;0.67;;
19030;SDS011;9648;51.130;13.978;2023-10-08T05:04:00;1.47;;;0.87;;
19030;SDS011;9648;51.130;13.978;2023-10-08T05:07:15;1.80;;;1.20;;
19030;SDS011;9648;51.130;13.978;2023-10-08T05:10:40;2.50;;;0.90;;
19030;SDS011;9648;51.130;13.978;2023-10-08T05:13:59;2.50;;;0.87;;
19030;SDS011;9648;51.130;13.978;2023-10-08T05:17:10;1.23;;;0.80;;
19030;SDS011;9648;51.130;13.978;2023-10-08T05:20:11;1.83;;;0.90;;
19030;SDS011;9648;51.130;13.978;2023-10-08T05:23:29;2.13;;;1.20;;
19030;SDS011;9648;51.130;13.978;2023-10-08T05:26:53;0.90;;;0.60;;
19030;SDS011;9648;51.130;13.978;2023-10-08T05:30:21;3.43;;;1.00;;
19030;SDS011;9648;51.130;13.978;2023-10-08T05:33:29;2.77;;;0.80;;
19030;SDS011;9648;51.130;13.978;2023-10-08T05:37:01;2.97;;;0.80;;
19030;SDS011;9648;51.130;13.978;2023-10-08T05:40:31;3.93;;;0.90;;
19030;SDS011;9648;51.130;13.978;2023-10-08T05:44:05;1.50;;;0.67;;
19030;SDS011;9648;51.130;13.978;2023-10-08T05:47:23;0.73;;;0.63;;
19030;SDS011;9648;51.130;13.978;2023-10-08T05:50:39;2.33;;;0.93;;
19030;SDS011;9648;51.130;13.978;2023-10-08T05:53:43;2.20;;;1.00;;
19030;SDS011;9648;51.130;13.978;2023-10-08T05:56:47;2.90;;;0.80;;
19030;SDS011;9648;51.130;13.978;2023-10-08T06:00:06;1.03;;;0.70;;
19030;SDS011;9648;51.130;13.978;2023-10-08T06:03:26;1.53;;;0.83;;
19030;SDS011;9648;51.130;13.978;2023-10-08T06:06:37;1.87;;;0.77;;
19030;SDS011;9648;51.130;13.978;2023-10-08T06:09:50;1.60;;;0.90;;
19030;SDS011;9648;51.130;13.978;2023-10-08T06:13:05;3.47;;;0.70;;
19030;SDS011;9648;51.130;13.978;2023-10-08T06:16:12;2.13;;;0.77;;
19030;SDS011;9648;51.130;13.978;2023-10-08T06:19:31;1.33;;;0.67;;
19030;SDS011;9648;51.130;13.978;2023-10-08T06:22:34;1.27;;;0.57;;
19030;SDS011;9648;51.130;13.978;2023-10-08T06:25:35;1.70;;;0.80;;
19030;SDS011;9648;51.130;13.978;2023-10-08T06:28:44;1.90;;;0.83;;
19030;SDS011;9648;51.130;13.978;2023-10-08T06:31:49;1.23;;;1.07;;
19030;SDS011;9648;51.130;13.978;2023-10-08T06:34:51;1.03;;;0.73;;
19030;SDS011;9648;51.130;13.978;2023-10-08T06:37:54;1.30;;;0.63;;
19030;SDS011;9648;51.130;13.978;2023-10-08T06:40:59;1.57;;;0.70;;
19030;SDS011;9648;51.130;13.978;2023-10-08T06:44:08;1.33;;;0.73;;
19030;SDS011;9648;51.130;13.978;2023-10-08T06:47:14;1.07;;;0.60;;
19030;SDS011;9648;51.130;13.978;2023-10-08T06:50:18;2.10;;;0.90;;
19030;SDS011;9648;51.130;13.978;2023-10-08T06:53:23;1.87;;;0.80;;
19030;SDS011;9648;51.130;13.978;2023-10-08T06:56:24;1.80;;;0.70;;
19030;SDS011;9648;51.130;13.978;2023-10-08T06:59:26;1.97;;;0.63;;
19030;SDS011;9648;51.130;13.978;2023-10-08T07:02:31;0.53;;;0.50;;
19030;SDS011;9648;51.130;13.978;2023-10-08T07:05:34;3.27;;;0.97;;
19030;SDS011;9648;51.130;13.978;2023-10-08T07:08:42;1.33;;;0.67;;
19030;SDS011;9648;51.130;13.978;2023-10-08T07:11:50;2.13;;;0.87;;
19030;SDS011;9648;51.130;13.978;2023-10-08T07:14:54;1.17;;;0.70;;
19030;SDS011;9648;51.130;13.978;2023-10-08T07:17:58;0.83;;;0.60;;
19030;SDS011;9648;51.130;13.978;2023-10-08T07:21:12;1.30;;;0.70;;
19030;SDS011;9648;51.130;13.978;2023-10-08T07:24:15;1.70;;;0.87;;
19030;SDS011;9648;51.130;13.978;2023-10-08T07:27:17;2.40;;;0.80;;
19030;SDS011;9648;51.130;13.978;2023-10-08T07:30:21;3.00;;;1.10;;
19030;SDS011;9648;51.130;13.978;2023-10-08T07:33:34;1.57;;;0.90;;
19030;SDS011;9648;51.130;13.978;2023-10-08T07:36:37;1.57;;;0.80;;
19030;SDS011;9648;51.130;13.978;2023-10-08T07:39:40;2.30;;;0.80;;
19030;SDS011;9648;51.130;13.978;2023-10-08T07:42:49;1.87;;;0.90;;
19030;SDS011;9648;51.130;13.978;2023-10-08T07:45:51;1.30;;;1.00;;
19030;SDS011;9648;51.130;13.978;2023-10-08T07:48:54;2.10;;;1.20;;
19030;SDS011;9648;51.130;13.978;2023-10-08T07:51:58;1.60;;;0.90;;
19030;SDS011;9648;51.130;13.978;2023-10-08T07:55:01;3.43;;;1.17;;
19030;SDS011;9648;51.130;13.978;2023-10-08T07:58:08;2.43;;;1.20;;
19030;SDS011;9648;51.130;13.978;2023-10-08T08:01:13;2.37;;;1.10;;
19030;SDS011;9648;51.130;13.978;2023-10-08T08:04:14;2.37;;;1.07;;
19030;SDS011;9648;51.130;13.978;2023-10-08T08:07:22;2.30;;;1.10;;
19030;SDS011;9648;51.130;13.978;2023-10-08T08:10:26;4.63;;;1.03;;
19030;SDS011;9648;51.130;13.978;2023-10-08T08:13:27;2.73;;;1.20;;
19030;SDS011;9648;51.130;13.978;2023-10-08T08:16:29;3.50;;;1.10;;
19030;SDS011;9648;51.130;13.978;2023-10-08T08:19:31;2.73;;;1.40;;
19030;SDS011;9648;51.130;13.978;2023-10-08T08:22:33;2.50;;;1.00;;
19030;SDS011;9648;51.130;13.978;2023-10-08T08:25:45;3.67;;;1.40;;
19030;SDS011;9648;51.130;13.978;2023-10-08T08:28:55;3.80;;;1.47;;
19030;SDS011;9648;51.130;13.978;2023-10-08T08:31:59;5.33;;;1.63;;
19030;SDS011;9648;51.130;13.978;2023-10-08T08:35:04;4.43;;;1.43;;
19030;SDS011;9648;51.130;13.978;2023-10-08T08:38:07;6.30;;;1.80;;
19030;SDS011;9648;51.130;13.978;2023-10-08T08:41:14;3.40;;;1.60;;
19030;SDS011;9648;51.130;13.978;2023-10-08T08:44:19;4.50;;;1.70;;
19030;SDS011;9648;51.130;13.978;2023-10-08T08:47:22;4.23;;;1.87;;
19030;SDS011;9648;51.130;13.978;2023-10-08T08:50:25;2.97;;;1.57;;
19030;SDS011;9648;51.130;13.978;2023-10-08T08:53:27;4.07;;;1.60;;
19030;SDS011;9648;51.130;13.978;2023-10-08T08:56:30;3.63;;;2.00;;
19030;SDS011;9648;51.130;13.978;2023-10-08T08:59:32;4.73;;;2.03;;
19030;SDS011;9648;51.130;13.978;2023-10-08T09:02:37;5.03;;;1.67;;
19030;SDS011;9648;51.130;13.978;2023-10-08T09:05:39;7.60;;;1.77;;
19030;SDS011;9648;51.130;13.978;2023-10-08T09:08:41;3.93;;;1.63;;
19030;SDS011;9648;51.130;13.978;2023-10-08T09:11:47;5.00;;;1.80;;
19030;SDS011;9648;51.130;13.978;2023-10-08T09:14:51;3.03;;;1.30;;
19030;SDS011;9648;51.130;13.978;2023-10-08T09:17:54;5.20;;;1.40;;
19030;SDS011;9648;51.130;13.978;2023-10-08T09:20:56;4.83;;;1.77;;
19030;SDS011;9648;51.130;13.978;2023-10-08T09:23:58;6.13;;;1.73;;
19030;SDS011;9648;51.130;13.978;2023-10-08T09:27:02;3.37;;;1.80;;
19030;SDS011;9648;51.130;13.978;2023-10-08T09:30:04;3.30;;;1.70;;
19030;SDS011;9648;51.130;13.978;2023-10-08T09:33:10;4.50;;;2.07;;
19030;SDS011;9648;51.130;13.978;2023-10-08T09:36:13;2.90;;;1.50;;
19030;SDS011;9648;51.130;13.978;2023-10-08T09:39:18;3.80;;;1.20;;
19030;SDS011;9648;51.130;13.978;2023-10-08T09:42:24;4.40;;;1.17;;
19030;SDS011;9648;51.130;13.978;2023-10-08T09:45:30;3.10;;;1.63;;
19030;SDS011;9648;51.130;13.978;2023-10-08T09:48:31;2.63;;;1.10;;
19030;SDS011;9648;51.130;13.978;2023-10-08T09:51:39;4.10;;;1.30;;
19030;SDS011;9648;51.130;13.978;2023-10-08T09:54:42;2.27;;;1.20;;
19030;SDS011;9648;51.130;13.978;2023-10-08T09:57:49;2.23;;;1.33;;
19030;SDS011;9648;51.130;13.978;2023-10-08T10:00:51;2.73;;;1.13;;
19030;SDS011;9648;51.130;13.978;2023-10-08T10:03:54;1.60;;;1.00;;
19030;SDS011;9648;51.130;13.978;2023-10-08T10:07:01;2.80;;;1.30;;
19030;SDS011;9648;51.130;13.978;2023-10-08T10:10:24;1.57;;;1.03;;
19030;SDS011;9648;51.130;13.978;2023-10-08T10:13:33;3.10;;;1.20;;
19030;SDS011;9648;51.130;13.978;2023-10-08T10:16:36;4.33;;;1.40;;
19030;SDS011;9648;51.130;13.978;2023-10-08T10:19:39;2.67;;;1.00;;
19030;SDS011;9648;51.130;13.978;2023-10-08T10:22:46;5.23;;;1.60;;
19030;SDS011;9648;51.130;13.978;2023-10-08T10:25:51;2.57;;;0.97;;
19030;SDS011;9648;51.130;13.978;2023-10-08T10:32:27;1.23;;;1.13;;
19030;SDS011;9648;51.130;13.978;2023-10-08T10:35:28;2.30;;;1.23;;
19030;SDS011;9648;51.130;13.978;2023-10-08T10:38:30;1.40;;;1.30;;
19030;SDS011;9648;51.130;13.978;2023-10-08T10:41:36;2.90;;;1.27;;
19030;SDS011;9648;51.130;13.978;2023-10-08T10:44:43;4.07;;;1.17;;
19030;SDS011;9648;51.130;13.978;2023-10-08T10:47:46;2.80;;;1.30;;
19030;SDS011;9648;51.130;13.978;2023-10-08T10:51:01;1.73;;;1.10;;
19030;SDS011;9648;51.130;13.978;2023-10-08T10:54:08;2.70;;;1.00;;
19030;SDS011;9648;51.130;13.978;2023-10-08T10:57:11;2.00;;;1.10;;
19030;SDS011;9648;51.130;13.978;2023-10-08T11:00:19;2.60;;;1.20;;
19030;SDS011;9648;51.130;13.978;2023-10-08T11:03:48;1.60;;;1.03;;
19030;SDS011;9648;51.130;13.978;2023-10-08T11:06:49;3.77;;;1.50;;
19030;SDS011;9648;51.130;13.978;2023-10-08T11:09:56;3.87;;;1.43;;
19030;SDS011;9648;51.130;13.978;2023-10-08T11:12:59;3.40;;;2.17;;
19030;SDS011;9648;51.130;13.978;2023-10-08T11:16:03;2.73;;;1.40;;
19030;SDS011;9648;51.130;13.978;2023-10-08T11:19:07;2.90;;;1.30;;
19030;SDS011;9648;51.130;13.978;2023-10-08T11:22:09;1.97;;;1.17;;
19030;SDS011;9648;51.130;13.978;2023-10-08T11:25:20;2.77;;;1.33;;
19030;SDS011;9648;51.130;13.978;2023-10-08T11:28:24;2.87;;;1.20;;
19030;SDS011;9648;51.130;13.978;2023-10-08T11:31:32;3.63;;;1.40;;
19030;SDS011;9648;51.130;13.978;2023-10-08T11:34:34;3.22;;;1.23;;
19030;SDS011;9648;51.130;13.978;2023-10-08T11:37:39;2.72;;;1.25;;
19030;SDS011;9648;51.130;13.978;2023-10-08T11:40:51;2.30;;;1.20;;
19030;SDS011;9648;51.130;13.978;2023-10-08T11:43:56;2.72;;;1.38;;
19030;SDS011;9648;51.130;13.978;2023-10-08T11:46:59;4.97;;;1.50;;
19030;SDS011;9648;51.130;13.978;2023-10-08T11:50:11;3.38;;;1.15;;
19030;SDS011;9648;51.130;13.978;2023-10-08T11:53:22;3.53;;;1.23;;
19030;SDS011;9648;51.130;13.978;2023-10-08T11:56:24;4.22;;;1.33;;
19030;SDS011;9648;51.130;13.978;2023-10-08T11:59:26;2.72;;;1.30;;
19030;SDS011;9648;51.130;13.978;2023-10-08T12:02:30;2.92;;;1.20;;
19030;SDS011;9648;51.130;13.978;2023-10-08T12:05:36;4.53;;;1.67;;
19030;SDS011;9648;51.130;13.978;2023-10-08T12:08:39;5.00;;;1.58;;
19030;SDS011;9648;51.130;13.978;2023-10-08T12:11:40;2.00;;;0.90;;
19030;SDS011;9648;51.130;13.978;2023-10-08T12:14:42;2.65;;;1.15;;
19030;SDS011;9648;51.130;13.978;2023-10-08T12:17:49;5.85;;;1.17;;
19030;SDS011;9648;51.130;13.978;2023-10-08T12:21:08;3.88;;;1.27;;
19030;SDS011;9648;51.130;13.978;2023-10-08T12:24:11;1.95;;;1.13;;
19030;SDS011;9648;51.130;13.978;2023-10-08T12:27:12;3.30;;;1.23;;
19030;SDS011;9648;51.130;13.978;2023-10-08T12:30:17;48.63;;;12.15;;
19030;SDS011;9648;51.130;13.978;2023-10-08T12:33:20;24.45;;;7.00;;
19030;SDS011;9648;51.130;13.978;2023-10-08T12:36:24;30.08;;;6.70;;
19030;SDS011;9648;51.130;13.978;2023-10-08T12:39:26;12.00;;;3.70;;
19030;SDS011;9648;51.130;13.978;2023-10-08T12:42:30;7.15;;;3.45;;
19030;SDS011;9648;51.130;13.978;2023-10-08T12:45:32;6.45;;;2.65;;
19030;SDS011;9648;51.130;13.978;2023-10-08T12:48:35;3.63;;;1.85;;
19030;SDS011;9648;51.130;13.978;2023-10-08T12:51:40;3.33;;;1.50;;
19030;SDS011;9648;51.130;13.978;2023-10-08T12:54:45;3.60;;;1.30;;
19030;SDS011;9648;51.130;13.978;2023-10-08T12:57:46;3.10;;;1.10;;
19030;SDS011;9648;51.130;13.978;2023-10-08T13:00:53;3.72;;;1.50;;
19030;SDS011;9648;51.130;13.978;2023-10-08T13:03:59;2.65;;;1.20;;
19030;SDS011;9648;51.130;13.978;2023-10-08T13:07:04;3.72;;;1.15;;
19030;SDS011;9648;51.130;13.978;2023-10-08T13:10:09;2.65;;;1.10;;
19030;SDS011;9648;51.130;13.978;2023-10-08T13:13:14;2.25;;;1.00;;
19030;SDS011;9648;51.130;13.978;2023-10-08T13:16:18;1.92;;;0.80;;
19030;SDS011;9648;51.130;13.978;2023-10-08T13:19:22;1.45;;;0.85;;
19030;SDS011;9648;51.130;13.978;2023-10-08T13:22:26;2.83;;;1.00;;
19030;SDS011;9648;51.130;13.978;2023-10-08T13:25:28;0.93;;;0.68;;
19030;SDS011;9648;51.130;13.978;2023-10-08T13:28:35;2.05;;;0.80;;
19030;SDS011;9648;51.130;13.978;2023-10-08T13:31:40;2.50;;;0.77;;
19030;SDS011;9648;51.130;13.978;2023-10-08T13:34:43;1.50;;;0.73;;
19030;SDS011;9648;51.130;13.978;2023-10-08T13:37:46;3.25;;;0.82;;
19030;SDS011;9648;51.130;13.978;2023-10-08T13:40:48;0.83;;;0.60;;
19030;SDS011;9648;51.130;13.978;2023-10-08T13:44:03;2.00;;;0.77;;
19030;SDS011;9648;51.130;13.978;2023-10-08T13:47:06;1.95;;;0.70;;
19030;SDS011;9648;51.130;13.978;2023-10-08T13:50:10;1.83;;;0.80;;
19030;SDS011;9648;51.130;13.978;2023-10-08T13:53:13;2.83;;;0.80;;
19030;SDS011;9648;51.130;13.978;2023-10-08T13:56:14;2.23;;;0.80;;
19030;SDS011;9648;51.130;13.978;2023-10-08T13:59:19;1.37;;;0.80;;
19030;SDS011;9648;51.130;13.978;2023-10-08T14:02:24;2.10;;;0.83;;
19030;SDS011;9648;51.130;13.978;2023-10-08T14:05:27;1.00;;;0.60;;
19030;SDS011;9648;51.130;13.978;2023-10-08T14:08:29;2.00;;;0.87;;
19030;SDS011;9648;51.130;13.978;2023-10-08T14:11:31;2.37;;;0.90;;
19030;SDS011;9648;51.130;13.978;2023-10-08T14:14:33;2.33;;;1.00;;
19030;SDS011;9648;51.130;13.978;2023-10-08T14:17:35;1.33;;;0.93;;
19030;SDS011;9648;51.130;13.978;2023-10-08T14:20:45;1.50;;;0.80;;
19030;SDS011;9648;51.130;13.978;2023-10-08T14:23:56;3.00;;;0.90;;
19030;SDS011;9648;51.130;13.978;2023-10-08T14:27:03;1.17;;;0.68;;
19030;SDS011;9648;51.130;13.978;2023-10-08T14:30:10;0.75;;;0.50;;
19030;SDS011;9648;51.130;13.978;2023-10-08T14:33:15;3.35;;;0.90;;
19030;SDS011;9648;51.130;13.978;2023-10-08T14:36:25;1.92;;;0.90;;
19030;SDS011;9648;51.130;13.978;2023-10-08T14:39:44;2.13;;;0.98;;
19030;SDS011;9648;51.130;13.978;2023-10-08T14:43:06;2.75;;;0.88;;
19030;SDS011;9648;51.130;13.978;2023-10-08T14:46:11;3.78;;;1.00;;
19030;SDS011;9648;51.130;13.978;2023-10-08T14:49:15;3.35;;;1.00;;
19030;SDS011;9648;51.130;13.978;2023-10-08T14:52:18;2.13;;;0.80;;
19030;SDS011;9648;51.130;13.978;2023-10-08T14:55:20;1.92;;;0.70;;
19030;SDS011;9648;51.130;13.978;2023-10-08T14:58:23;0.68;;;0.50;;
19030;SDS011;9648;51.130;13.978;2023-10-08T15:01:25;2.03;;;0.80;;
19030;SDS011;9648;51.130;13.978;2023-10-08T15:04:28;2.83;;;0.90;;
19030;SDS011;9648;51.130;13.978;2023-10-08T15:07:30;1.52;;;0.80;;
19030;SDS011;9648;51.130;13.978;2023-10-08T15:10:32;1.42;;;0.80;;
19030;SDS011;9648;51.130;13.978;2023-10-08T15:13:38;2.10;;;0.80;;
19030;SDS011;9648;51.130;13.978;2023-10-08T15:16:39;2.53;;;1.08;;
19030;SDS011;9648;51.130;13.978;2023-10-08T15:19:41;1.42;;;0.82;;
19030;SDS011;9648;51.130;13.978;2023-10-08T15:22:47;2.40;;;1.25;;
19030;SDS011;9648;51.130;13.978;2023-10-08T15:25:49;2.25;;;1.20;;
19030;SDS011;9648;51.130;13.978;2023-10-08T15:28:51;3.45;;;0.93;;
19030;SDS011;9648;51.130;13.978;2023-10-08T15:31:52;2.75;;;1.10;;
19030;SDS011;9648;51.130;13.978;2023-10-08T15:34:58;2.38;;;1.00;;
19030;SDS011;9648;51.130;13.978;2023-10-08T15:38:04;1.30;;;0.80;;
19030;SDS011;9648;51.130;13.978;2023-10-08T15:41:09;1.85;;;0.80;;
19030;SDS011;9648;51.130;13.978;2023-10-08T15:44:11;1.70;;;1.10;;
19030;SDS011;9648;51.130;13.978;2023-10-08T15:47:13;2.13;;;0.80;;
19030;SDS011;9648;51.130;13.978;2023-10-08T15:50:15;1.67;;;0.98;;
19030;SDS011;9648;51.130;13.978;2023-10-08T15:53:21;1.70;;;0.80;;
19030;SDS011;9648;51.130;13.978;2023-10-08T15:56:23;1.33;;;0.75;;
19030;SDS011;9648;51.130;13.978;2023-10-08T15:59:26;0.95;;;0.70;;
19030;SDS011;9648;51.130;13.978;2023-10-08T16:02:27;1.00;;;0.63;;
19030;SDS011;9648;51.130;13.978;2023-10-08T16:05:29;1.38;;;0.93;;
19030;SDS011;9648;51.130;13.978;2023-10-08T16:08:32;0.83;;;0.60;;
19030;SDS011;9648;51.130;13.978;2023-10-08T16:11:33;1.07;;;0.67;;
19030;SDS011;9648;51.130;13.978;2023-10-08T16:14:36;0.77;;;0.60;;
19030;SDS011;9648;51.130;13.978;2023-10-08T16:17:38;0.82;;;0.52;;
19030;SDS011;9648;51.130;13.978;2023-10-08T16:20:40;1.00;;;0.63;;
19030;SDS011;9648;51.130;13.978;2023-10-08T16:23:43;1.87;;;0.60;;
19030;SDS011;9648;51.130;13.978;2023-10-08T16:26:45;0.93;;;0.80;;
19030;SDS011;9648;51.130;13.978;2023-10-08T16:29:47;1.33;;;0.70;;
19030;SDS011;9648;51.130;13.978;2023-10-08T16:32:51;0.80;;;0.67;;
19030;SDS011;9648;51.130;13.978;2023-10-08T16:35:53;1.57;;;1.00;;
19030;SDS011;9648;51.130;13.978;2023-10-08T16:39:00;3.17;;;1.43;;
19030;SDS011;9648;51.130;13.978;2023-10-08T16:42:02;1.33;;;1.00;;
19030;SDS011;9648;51.130;13.978;2023-10-08T16:45:07;2.60;;;1.17;;
19030;SDS011;9648;51.130;13.978;2023-10-08T16:48:10;1.23;;;1.10;;
19030;SDS011;9648;51.130;13.978;2023-10-08T16:51:12;2.37;;;1.17;;
19030;SDS011;9648;51.130;13.978;2023-10-08T16:54:16;1.67;;;1.20;;
19030;SDS011;9648;51.130;13.978;2023-10-08T16:57:19;0.83;;;0.80;;
19030;SDS011;9648;51.130;13.978;2023-10-08T17:00:20;1.40;;;0.90;;
19030;SDS011;9648;51.130;13.978;2023-10-08T17:03:23;0.87;;;0.80;;
19030;SDS011;9648;51.130;13.978;2023-10-08T17:06:24;1.10;;;0.90;;
19030;SDS011;9648;51.130;13.978;2023-10-08T17:09:27;2.20;;;1.10;;
19030;SDS011;9648;51.130;13.978;2023-10-08T17:12:29;2.87;;;1.20;;
19030;SDS011;9648;51.130;13.978;2023-10-08T17:15:31;1.90;;;1.30;;
19030;SDS011;9648;51.130;13.978;2023-10-08T17:18:32;1.57;;;1.20;;
19030;SDS011;9648;51.130;13.978;2023-10-08T17:21:35;1.80;;;1.30;;
19030;SDS011;9648;51.130;13.978;2023-10-08T17:24:38;2.17;;;1.17;;
19030;SDS011;9648;51.130;13.978;2023-10-08T17:27:40;1.93;;;1.17;;
19030;SDS011;9648;51.130;13.978;2023-10-08T17:30:45;1.60;;;1.00;;
19030;SDS011;9648;51.130;13.978;2023-10-08T17:33:49;1.93;;;1.10;;
19030;SDS011;9648;51.130;13.978;2023-10-08T17:36:51;2.27;;;1.20;;
19030;SDS011;9648;51.130;13.978;2023-10-08T17:39:55;1.60;;;1.00;;
19030;SDS011;9648;51.130;13.978;2023-10-08T17:42:58;1.57;;;1.00;;
19030;SDS011;9648;51.130;13.978;2023-10-08T17:46:00;1.17;;;0.90;;
19030;SDS011;9648;51.130;13.978;2023-10-08T17:49:04;1.67;;;1.10;;
19030;SDS011;9648;51.130;13.978;2023-10-08T17:52:06;1.83;;;0.80;;
19030;SDS011;9648;51.130;13.978;2023-10-08T17:55:12;1.43;;;0.83;;
19030;SDS011;9648;51.130;13.978;2023-10-08T17:58:16;1.70;;;1.00;;
19030;SDS011;9648;51.130;13.978;2023-10-08T18:01:26;1.80;;;1.40;;
19030;SDS011;9648;51.130;13.978;2023-10-08T18:04:27;1.70;;;1.13;;
19030;SDS011;9648;51.130;13.978;2023-10-08T18:07:29;2.20;;;1.30;;
19030;SDS011;9648;51.130;13.978;2023-10-08T18:10:32;1.93;;;1.00;;
19030;SDS011;9648;51.130;13.978;2023-10-08T18:13:36;1.17;;;0.93;;
19030;SDS011;9648;51.130;13.978;2023-10-08T18:16:44;1.37;;;1.00;;
19030;SDS011;9648;51.130;13.978;2023-10-08T18:19:46;1.33;;;0.70;;
19030;SDS011;9648;51.130;13.978;2023-10-08T18:22:49;1.53;;;1.00;;
19030;SDS011;9648;51.130;13.978;2023-10-08T18:25:55;2.10;;;1.07;;
19030;SDS011;9648;51.130;13.978;2023-10-08T18:28:57;1.60;;;1.00;;
19030;SDS011;9648;51.130;13.978;2023-10-08T18:31:58;1.77;;;1.00;;
19030;SDS011;9648;51.130;13.978;2023-10-08T18:35:00;1.70;;;1.13;;
19030;SDS011;9648;51.130;13.978;2023-10-08T18:38:05;1.80;;;1.20;;
19030;SDS011;9648;51.130;13.978;2023-10-08T18:41:08;1.60;;;1.20;;